﻿<?xml version="1.0" encoding="utf-8"?><gpx creator="Garmin Desktop App" version="1.1" xsi:schemaLocation="http://www.topografix.com/GPX/1/1 http://www.topografix.com/GPX/1/1/gpx.xsd http://www.garmin.com/xmlschemas/WaypointExtension/v1 http://www8.garmin.com/xmlschemas/WaypointExtensionv1.xsd http://www.garmin.com/xmlschemas/TrackPointExtension/v1 http://www.garmin.com/xmlschemas/TrackPointExtensionv1.xsd http://www.garmin.com/xmlschemas/GpxExtensions/v3 http://www8.garmin.com/xmlschemas/GpxExtensionsv3.xsd http://www.garmin.com/xmlschemas/ActivityExtension/v1 http://www8.garmin.com/xmlschemas/ActivityExtensionv1.xsd http://www.garmin.com/xmlschemas/AdventuresExtensions/v1 http://www8.garmin.com/xmlschemas/AdventuresExtensionv1.xsd http://www.garmin.com/xmlschemas/PressureExtension/v1 http://www.garmin.com/xmlschemas/PressureExtensionv1.xsd http://www.garmin.com/xmlschemas/TripExtensions/v1 http://www.garmin.com/xmlschemas/TripExtensionsv1.xsd http://www.garmin.com/xmlschemas/TripMetaDataExtensions/v1 http://www.garmin.com/xmlschemas/TripMetaDataExtensionsv1.xsd http://www.garmin.com/xmlschemas/ViaPointTransportationModeExtensions/v1 http://www.garmin.com/xmlschemas/ViaPointTransportationModeExtensionsv1.xsd http://www.garmin.com/xmlschemas/CreationTimeExtension/v1 http://www.garmin.com/xmlschemas/CreationTimeExtensionsv1.xsd http://www.garmin.com/xmlschemas/AccelerationExtension/v1 http://www.garmin.com/xmlschemas/AccelerationExtensionv1.xsd http://www.garmin.com/xmlschemas/PowerExtension/v1 http://www.garmin.com/xmlschemas/PowerExtensionv1.xsd http://www.garmin.com/xmlschemas/VideoExtension/v1 http://www.garmin.com/xmlschemas/VideoExtensionv1.xsd" xmlns="http://www.topografix.com/GPX/1/1" xmlns:xsi="http://www.w3.org/2001/XMLSchema-instance" xmlns:wptx1="http://www.garmin.com/xmlschemas/WaypointExtension/v1" xmlns:gpxtrx="http://www.garmin.com/xmlschemas/GpxExtensions/v3" xmlns:gpxtpx="http://www.garmin.com/xmlschemas/TrackPointExtension/v1" xmlns:gpxx="http://www.garmin.com/xmlschemas/GpxExtensions/v3" xmlns:trp="http://www.garmin.com/xmlschemas/TripExtensions/v1" xmlns:adv="http://www.garmin.com/xmlschemas/AdventuresExtensions/v1" xmlns:prs="http://www.garmin.com/xmlschemas/PressureExtension/v1" xmlns:tmd="http://www.garmin.com/xmlschemas/TripMetaDataExtensions/v1" xmlns:vptm="http://www.garmin.com/xmlschemas/ViaPointTransportationModeExtensions/v1" xmlns:ctx="http://www.garmin.com/xmlschemas/CreationTimeExtension/v1" xmlns:gpxacc="http://www.garmin.com/xmlschemas/AccelerationExtension/v1" xmlns:gpxpx="http://www.garmin.com/xmlschemas/PowerExtension/v1" xmlns:vidx1="http://www.garmin.com/xmlschemas/VideoExtension/v1">

  <metadata>
    <link href="http://www.garmin.com">
      <text>Garmin International</text>
    </link>
    <time>2016-10-01T09:33:52Z</time>
    <bounds maxlat="45.821370016783476" maxlon="7.939489977434278" minlat="45.7933400105685" minlon="7.888400014489889" />
  </metadata>

  <trk>
    <name>alpe larecchio</name>
    <desc>ACTIVE LOG                         </desc>
    <extensions>
      <gpxx:TrackExtension>
        <gpxx:DisplayColor>Red</gpxx:DisplayColor>
      </gpxx:TrackExtension>
    </extensions>
    <trkseg>
      <trkpt lat="45.821370016783476" lon="7.939489977434278">
        <ele>1333</ele>
        <time>2010-07-18T05:43:53Z</time>
      </trkpt>
      <trkpt lat="45.821349984034896" lon="7.939419988542795">
        <ele>1336.9000000000001</ele>
        <time>2010-07-18T05:43:57Z</time>
      </trkpt>
      <trkpt lat="45.821319976821542" lon="7.939359974116087">
        <ele>1340.2</ele>
        <time>2010-07-18T05:44:04Z</time>
      </trkpt>
      <trkpt lat="45.821300027891994" lon="7.939299959689379">
        <ele>1343.0999999999999</ele>
        <time>2010-07-18T05:44:09Z</time>
      </trkpt>
      <trkpt lat="45.821300027891994" lon="7.939299959689379">
        <ele>1344.5</ele>
        <time>2010-07-18T05:44:12Z</time>
      </trkpt>
      <trkpt lat="45.821289969608188" lon="7.939259978011251">
        <ele>1346</ele>
        <time>2010-07-18T05:44:15Z</time>
      </trkpt>
      <trkpt lat="45.821279995143414" lon="7.939219996333122">
        <ele>1347.9000000000001</ele>
        <time>2010-07-18T05:44:19Z</time>
      </trkpt>
      <trkpt lat="45.821249987930059" lon="7.939099967479706">
        <ele>1350.8</ele>
        <time>2010-07-18T05:44:28Z</time>
      </trkpt>
      <trkpt lat="45.821189973503351" lon="7.938899975270033">
        <ele>1354.2</ele>
        <time>2010-07-18T05:44:40Z</time>
      </trkpt>
      <trkpt lat="45.821110010147095" lon="7.93872001580894">
        <ele>1357</ele>
        <time>2010-07-18T05:44:51Z</time>
      </trkpt>
      <trkpt lat="45.821059970185161" lon="7.938560005277395">
        <ele>1360.4000000000001</ele>
        <time>2010-07-18T05:45:02Z</time>
      </trkpt>
      <trkpt lat="45.820980006828904" lon="7.938309973105788">
        <ele>1363.3</ele>
        <time>2010-07-18T05:45:18Z</time>
      </trkpt>
      <trkpt lat="45.820899959653616" lon="7.938109980896115">
        <ele>1365.2</ele>
        <time>2010-07-18T05:45:34Z</time>
      </trkpt>
      <trkpt lat="45.820789989084005" lon="7.937830025330186">
        <ele>1366.2</ele>
        <time>2010-07-18T05:45:53Z</time>
      </trkpt>
      <trkpt lat="45.820680018514395" lon="7.937530037015677">
        <ele>1366.7</ele>
        <time>2010-07-18T05:46:12Z</time>
      </trkpt>
      <trkpt lat="45.820480026304722" lon="7.937489971518517">
        <ele>1367.5999999999999</ele>
        <time>2010-07-18T05:46:31Z</time>
      </trkpt>
      <trkpt lat="45.820410037413239" lon="7.937549985945225">
        <ele>1368.5999999999999</ele>
        <time>2010-07-18T05:46:42Z</time>
      </trkpt>
      <trkpt lat="45.820329990237951" lon="7.937540011480451">
        <ele>1368.5999999999999</ele>
        <time>2010-07-18T05:46:47Z</time>
      </trkpt>
      <trkpt lat="45.820139972493052" lon="7.93743004091084">
        <ele>1369.5</ele>
        <time>2010-07-18T05:47:06Z</time>
      </trkpt>
      <trkpt lat="45.819930005818605" lon="7.937189983204007">
        <ele>1368.0999999999999</ele>
        <time>2010-07-18T05:47:26Z</time>
      </trkpt>
      <trkpt lat="45.819760020822287" lon="7.936910027638078">
        <ele>1368.5999999999999</ele>
        <time>2010-07-18T05:47:47Z</time>
      </trkpt>
      <trkpt lat="45.819570003077388" lon="7.936599981039763">
        <ele>1366.7</ele>
        <time>2010-07-18T05:48:08Z</time>
      </trkpt>
      <trkpt lat="45.819360036402941" lon="7.9365099593997">
        <ele>1366.2</ele>
        <time>2010-07-18T05:48:27Z</time>
      </trkpt>
      <trkpt lat="45.819089971482754" lon="7.936599981039763">
        <ele>1365.7</ele>
        <time>2010-07-18T05:48:46Z</time>
      </trkpt>
      <trkpt lat="45.819019982591271" lon="7.936599981039763">
        <ele>1365.2</ele>
        <time>2010-07-18T05:48:50Z</time>
      </trkpt>
      <trkpt lat="45.818729968741536" lon="7.936559999361634">
        <ele>1366.7</ele>
        <time>2010-07-18T05:49:12Z</time>
      </trkpt>
      <trkpt lat="45.818640030920506" lon="7.93652999214828">
        <ele>1367.0999999999999</ele>
        <time>2010-07-18T05:49:17Z</time>
      </trkpt>
      <trkpt lat="45.818619998171926" lon="7.93652999214828">
        <ele>1367.5999999999999</ele>
        <time>2010-07-18T05:49:20Z</time>
      </trkpt>
      <trkpt lat="45.818520002067089" lon="7.936460003256798">
        <ele>1368.0999999999999</ele>
        <time>2010-07-18T05:49:28Z</time>
      </trkpt>
      <trkpt lat="45.818299977108836" lon="7.936209971085191">
        <ele>1370</ele>
        <time>2010-07-18T05:49:48Z</time>
      </trkpt>
      <trkpt lat="45.818129992112517" lon="7.935939989984036">
        <ele>1371.9000000000001</ele>
        <time>2010-07-18T05:50:08Z</time>
      </trkpt>
      <trkpt lat="45.817980039864779" lon="7.935640001669526">
        <ele>1372.9000000000001</ele>
        <time>2010-07-18T05:50:29Z</time>
      </trkpt>
      <trkpt lat="45.817760014906526" lon="7.935379995033145">
        <ele>1376.3</ele>
        <time>2010-07-18T05:50:53Z</time>
      </trkpt>
      <trkpt lat="45.817539989948273" lon="7.935140021145344">
        <ele>1379.5999999999999</ele>
        <time>2010-07-18T05:51:17Z</time>
      </trkpt>
      <trkpt lat="45.817309990525246" lon="7.934870040044189">
        <ele>1381.0999999999999</ele>
        <time>2010-07-18T05:51:43Z</time>
      </trkpt>
      <trkpt lat="45.817089965566993" lon="7.934629982337356">
        <ele>1383.5</ele>
        <time>2010-07-18T05:52:06Z</time>
      </trkpt>
      <trkpt lat="45.816949987784028" lon="7.934480030089617">
        <ele>1384.4000000000001</ele>
        <time>2010-07-18T05:52:22Z</time>
      </trkpt>
      <trkpt lat="45.816819984465837" lon="7.934369975700975">
        <ele>1384.9000000000001</ele>
        <time>2010-07-18T05:52:38Z</time>
      </trkpt>
      <trkpt lat="45.816680006682873" lon="7.934099994599819">
        <ele>1387.3</ele>
        <time>2010-07-18T05:52:58Z</time>
      </trkpt>
      <trkpt lat="45.816700039431453" lon="7.933749966323376">
        <ele>1388.8</ele>
        <time>2010-07-18T05:53:19Z</time>
      </trkpt>
      <trkpt lat="45.81658998504281" lon="7.933360040187836">
        <ele>1387.8</ele>
        <time>2010-07-18T05:53:43Z</time>
      </trkpt>
      <trkpt lat="45.816350011155009" lon="7.933430029079318">
        <ele>1385.9000000000001</ele>
        <time>2010-07-18T05:54:00Z</time>
      </trkpt>
      <trkpt lat="45.816169967874885" lon="7.933360040187836">
        <ele>1385.9000000000001</ele>
        <time>2010-07-18T05:54:17Z</time>
      </trkpt>
      <trkpt lat="45.816059997305274" lon="7.933080000802875">
        <ele>1386.4000000000001</ele>
        <time>2010-07-18T05:54:37Z</time>
      </trkpt>
      <trkpt lat="45.815999982878566" lon="7.932659983634949">
        <ele>1388.3</ele>
        <time>2010-07-18T05:55:01Z</time>
      </trkpt>
      <trkpt lat="45.815969975665212" lon="7.932229992002249">
        <ele>1390.7</ele>
        <time>2010-07-18T05:55:26Z</time>
      </trkpt>
      <trkpt lat="45.815799990668893" lon="7.931800000369549">
        <ele>1391.7</ele>
        <time>2010-07-18T05:55:54Z</time>
      </trkpt>
      <trkpt lat="45.815509976819158" lon="7.931409990414977">
        <ele>1391.2</ele>
        <time>2010-07-18T05:56:24Z</time>
      </trkpt>
      <trkpt lat="45.815249970182776" lon="7.93117999099195">
        <ele>1390.7</ele>
        <time>2010-07-18T05:56:47Z</time>
      </trkpt>
      <trkpt lat="45.815100017935038" lon="7.930929958820343">
        <ele>1390.2</ele>
        <time>2010-07-18T05:57:07Z</time>
      </trkpt>
      <trkpt lat="45.815000021830201" lon="7.930719992145896">
        <ele>1389.7</ele>
        <time>2010-07-18T05:57:22Z</time>
      </trkpt>
      <trkpt lat="45.814770022407174" lon="7.930740024894476">
        <ele>1388.8</ele>
        <time>2010-07-18T05:57:42Z</time>
      </trkpt>
      <trkpt lat="45.814789971336722" lon="7.93074999935925">
        <ele>1388.8</ele>
        <time>2010-07-18T05:57:59Z</time>
      </trkpt>
      <trkpt lat="45.814659968018532" lon="7.930540032684803">
        <ele>1386.8</ele>
        <time>2010-07-18T06:06:00Z</time>
      </trkpt>
      <trkpt lat="45.814519990235567" lon="7.930259993299842">
        <ele>1385.4000000000001</ele>
        <time>2010-07-18T06:06:20Z</time>
      </trkpt>
      <trkpt lat="45.814450001344085" lon="7.929969979450107">
        <ele>1384.4000000000001</ele>
        <time>2010-07-18T06:06:39Z</time>
      </trkpt>
      <trkpt lat="45.814340030774474" lon="7.929769987240434">
        <ele>1387.3</ele>
        <time>2010-07-18T06:06:58Z</time>
      </trkpt>
      <trkpt lat="45.814240034669638" lon="7.929639983922243">
        <ele>1389.7</ele>
        <time>2010-07-18T06:07:13Z</time>
      </trkpt>
      <trkpt lat="45.814110031351447" lon="7.929409984499216">
        <ele>1391.7</ele>
        <time>2010-07-18T06:07:35Z</time>
      </trkpt>
      <trkpt lat="45.814089998602867" lon="7.929100021719933">
        <ele>1393.0999999999999</ele>
        <time>2010-07-18T06:07:55Z</time>
      </trkpt>
      <trkpt lat="45.814150013029575" lon="7.928710011765361">
        <ele>1393.5999999999999</ele>
        <time>2010-07-18T06:08:16Z</time>
      </trkpt>
      <trkpt lat="45.814180020242929" lon="7.928320001810789">
        <ele>1393.5999999999999</ele>
        <time>2010-07-18T06:08:34Z</time>
      </trkpt>
      <trkpt lat="45.814140038564801" lon="7.9279999807477">
        <ele>1393.5999999999999</ele>
        <time>2010-07-18T06:08:54Z</time>
      </trkpt>
      <trkpt lat="45.813980028033257" lon="7.927690017968416">
        <ele>1391.7</ele>
        <time>2010-07-18T06:09:16Z</time>
      </trkpt>
      <trkpt lat="45.813780035823584" lon="7.927420036867261">
        <ele>1390.2</ele>
        <time>2010-07-18T06:09:36Z</time>
      </trkpt>
      <trkpt lat="45.813639974221587" lon="7.92716003023088">
        <ele>1390.2</ele>
        <time>2010-07-18T06:09:52Z</time>
      </trkpt>
      <trkpt lat="45.813499996438622" lon="7.926870016381145">
        <ele>1390.2</ele>
        <time>2010-07-18T06:10:11Z</time>
      </trkpt>
      <trkpt lat="45.813439982011914" lon="7.926500039175153">
        <ele>1389.7</ele>
        <time>2010-07-18T06:10:31Z</time>
      </trkpt>
      <trkpt lat="45.813230015337467" lon="7.926329970359802">
        <ele>1390.2</ele>
        <time>2010-07-18T06:10:50Z</time>
      </trkpt>
      <trkpt lat="45.813039997592568" lon="7.926040040329099">
        <ele>1387.3</ele>
        <time>2010-07-18T06:11:12Z</time>
      </trkpt>
      <trkpt lat="45.812879987061024" lon="7.925869971513748">
        <ele>1384.9000000000001</ele>
        <time>2010-07-18T06:11:27Z</time>
      </trkpt>
      <trkpt lat="45.812710002064705" lon="7.925599990412593">
        <ele>1383</ele>
        <time>2010-07-18T06:11:46Z</time>
      </trkpt>
      <trkpt lat="45.812489977106452" lon="7.925339983776212">
        <ele>1380.0999999999999</ele>
        <time>2010-07-18T06:12:06Z</time>
      </trkpt>
      <trkpt lat="45.812299959361553" lon="7.925030020996928">
        <ele>1378.7</ele>
        <time>2010-07-18T06:12:26Z</time>
      </trkpt>
      <trkpt lat="45.812069959938526" lon="7.924719974398613">
        <ele>1379.2</ele>
        <time>2010-07-18T06:12:50Z</time>
      </trkpt>
      <trkpt lat="45.811940040439367" lon="7.924310015514493">
        <ele>1379.2</ele>
        <time>2010-07-18T06:13:15Z</time>
      </trkpt>
      <trkpt lat="45.811799978837371" lon="7.92408999055624">
        <ele>1376.8</ele>
        <time>2010-07-18T06:13:35Z</time>
      </trkpt>
      <trkpt lat="45.81166997551918" lon="7.92395998723805">
        <ele>1375.3</ele>
        <time>2010-07-18T06:13:51Z</time>
      </trkpt>
      <trkpt lat="45.811520023271441" lon="7.923699980601668">
        <ele>1371.9000000000001</ele>
        <time>2010-07-18T06:14:10Z</time>
      </trkpt>
      <trkpt lat="45.811390019953251" lon="7.923350036144257">
        <ele>1369.5</ele>
        <time>2010-07-18T06:14:33Z</time>
      </trkpt>
      <trkpt lat="45.811149962246418" lon="7.923290021717548">
        <ele>1371.4000000000001</ele>
        <time>2010-07-18T06:14:52Z</time>
      </trkpt>
      <trkpt lat="45.811000009998679" lon="7.922970000654459">
        <ele>1371.4000000000001</ele>
        <time>2010-07-18T06:15:12Z</time>
      </trkpt>
      <trkpt lat="45.81080999225378" lon="7.922619972378016">
        <ele>1370.5</ele>
        <time>2010-07-18T06:15:35Z</time>
      </trkpt>
      <trkpt lat="45.810619974508882" lon="7.922340016812086">
        <ele>1369.5</ele>
        <time>2010-07-18T06:15:55Z</time>
      </trkpt>
      <trkpt lat="45.810510003939271" lon="7.922189980745316">
        <ele>1371.4000000000001</ele>
        <time>2010-07-18T06:16:12Z</time>
      </trkpt>
      <trkpt lat="45.810479996725917" lon="7.922149999067187">
        <ele>1372.4000000000001</ele>
        <time>2010-07-18T06:16:29Z</time>
      </trkpt>
      <trkpt lat="45.810430040583014" lon="7.921999963000417">
        <ele>1373.9000000000001</ele>
        <time>2010-07-18T06:17:03Z</time>
      </trkpt>
      <trkpt lat="45.810349993407726" lon="7.921829978004098">
        <ele>1375.8</ele>
        <time>2010-07-18T06:17:19Z</time>
      </trkpt>
      <trkpt lat="45.810259971767664" lon="7.921539964154363">
        <ele>1379.2</ele>
        <time>2010-07-18T06:17:39Z</time>
      </trkpt>
      <trkpt lat="45.810180008411407" lon="7.92133997194469">
        <ele>1381.5</ele>
        <time>2010-07-18T06:17:58Z</time>
      </trkpt>
      <trkpt lat="45.810129968449473" lon="7.921160012483597">
        <ele>1384.4000000000001</ele>
        <time>2010-07-18T06:18:13Z</time>
      </trkpt>
      <trkpt lat="45.810040030628443" lon="7.920960020273924">
        <ele>1387.3</ele>
        <time>2010-07-18T06:18:32Z</time>
      </trkpt>
      <trkpt lat="45.8099299762398" lon="7.920790035277605">
        <ele>1389.2</ele>
        <time>2010-07-18T06:18:52Z</time>
      </trkpt>
      <trkpt lat="45.80984003841877" lon="7.920530028641224">
        <ele>1392.0999999999999</ele>
        <time>2010-07-18T06:19:14Z</time>
      </trkpt>
      <trkpt lat="45.809739958494902" lon="7.920359959825873">
        <ele>1394.5</ele>
        <time>2010-07-18T06:19:30Z</time>
      </trkpt>
      <trkpt lat="45.809659995138645" lon="7.920149993151426">
        <ele>1397.4000000000001</ele>
        <time>2010-07-18T06:19:50Z</time>
      </trkpt>
      <trkpt lat="45.809569973498583" lon="7.919929968193173">
        <ele>1400.3</ele>
        <time>2010-07-18T06:20:09Z</time>
      </trkpt>
      <trkpt lat="45.809450028464198" lon="7.91964003816247">
        <ele>1403.2</ele>
        <time>2010-07-18T06:20:32Z</time>
      </trkpt>
      <trkpt lat="45.809309966862202" lon="7.919399980455637">
        <ele>1405.0999999999999</ele>
        <time>2010-07-18T06:20:52Z</time>
      </trkpt>
      <trkpt lat="45.809120032936335" lon="7.919239969924092">
        <ele>1406.0999999999999</ele>
        <time>2010-07-18T06:21:11Z</time>
      </trkpt>
      <trkpt lat="45.808969996869564" lon="7.919129999354482">
        <ele>1406.0999999999999</ele>
        <time>2010-07-18T06:21:26Z</time>
      </trkpt>
      <trkpt lat="45.808779979124665" lon="7.919129999354482">
        <ele>1407</ele>
        <time>2010-07-18T06:21:42Z</time>
      </trkpt>
      <trkpt lat="45.808760030195117" lon="7.919129999354482">
        <ele>1406.5999999999999</ele>
        <time>2010-07-18T06:22:08Z</time>
      </trkpt>
      <trkpt lat="45.808719964697957" lon="7.919120024889708">
        <ele>1406.5999999999999</ele>
        <time>2010-07-18T06:22:16Z</time>
      </trkpt>
      <trkpt lat="45.808670008555055" lon="7.919099992141128">
        <ele>1407</ele>
        <time>2010-07-18T06:22:20Z</time>
      </trkpt>
      <trkpt lat="45.80850999802351" lon="7.918930007144809">
        <ele>1407.5</ele>
        <time>2010-07-18T06:22:38Z</time>
      </trkpt>
      <trkpt lat="45.808319980278611" lon="7.91873998939991">
        <ele>1407</ele>
        <time>2010-07-18T06:22:55Z</time>
      </trkpt>
      <trkpt lat="45.80808000639081" lon="7.918600011616945">
        <ele>1406.5999999999999</ele>
        <time>2010-07-18T06:23:14Z</time>
      </trkpt>
      <trkpt lat="45.808040024712682" lon="7.918590037152171">
        <ele>1407</ele>
        <time>2010-07-18T06:23:18Z</time>
      </trkpt>
      <trkpt lat="45.807840032503009" lon="7.918500015512109">
        <ele>1407.5</ele>
        <time>2010-07-18T06:23:33Z</time>
      </trkpt>
      <trkpt lat="45.807819999754429" lon="7.918500015512109">
        <ele>1407.5</ele>
        <time>2010-07-18T06:23:34Z</time>
      </trkpt>
      <trkpt lat="45.807580025866628" lon="7.91833003051579">
        <ele>1407.5</ele>
        <time>2010-07-18T06:23:53Z</time>
      </trkpt>
      <trkpt lat="45.807410040870309" lon="7.918149987235665">
        <ele>1408.5</ele>
        <time>2010-07-18T06:24:09Z</time>
      </trkpt>
      <trkpt lat="45.807169983163476" lon="7.918040016666055">
        <ele>1409.4000000000001</ele>
        <time>2010-07-18T06:24:28Z</time>
      </trkpt>
      <trkpt lat="45.806990023702383" lon="7.917989976704121">
        <ele>1411.3</ele>
        <time>2010-07-18T06:24:45Z</time>
      </trkpt>
      <trkpt lat="45.806779973208904" lon="7.917929962277412">
        <ele>1412.3</ele>
        <time>2010-07-18T06:25:01Z</time>
      </trkpt>
      <trkpt lat="45.806670002639294" lon="7.917910013347864">
        <ele>1411.8</ele>
        <time>2010-07-18T06:25:14Z</time>
      </trkpt>
      <trkpt lat="45.806549973785877" lon="7.91785997338593">
        <ele>1413.3</ele>
        <time>2010-07-18T06:25:33Z</time>
      </trkpt>
      <trkpt lat="45.806370014324784" lon="7.917640032246709">
        <ele>1414.7</ele>
        <time>2010-07-18T06:25:51Z</time>
      </trkpt>
      <trkpt lat="45.806140014901757" lon="7.91742998175323">
        <ele>1416.2</ele>
        <time>2010-07-18T06:26:10Z</time>
      </trkpt>
      <trkpt lat="45.805989978834987" lon="7.917129993438721">
        <ele>1418.5999999999999</ele>
        <time>2010-07-18T06:26:31Z</time>
      </trkpt>
      <trkpt lat="45.805829968303442" lon="7.916920026764274">
        <ele>1419.0999999999999</ele>
        <time>2010-07-18T06:26:49Z</time>
      </trkpt>
      <trkpt lat="45.805650008842349" lon="7.916820030659437">
        <ele>1421</ele>
        <time>2010-07-18T06:27:05Z</time>
      </trkpt>
      <trkpt lat="45.80548002384603" lon="7.916769990697503">
        <ele>1423.8</ele>
        <time>2010-07-18T06:27:23Z</time>
      </trkpt>
      <trkpt lat="45.805359994992614" lon="7.916669994592667">
        <ele>1426.7</ele>
        <time>2010-07-18T06:27:40Z</time>
      </trkpt>
      <trkpt lat="45.805220017209649" lon="7.916620038449764">
        <ele>1430.0999999999999</ele>
        <time>2010-07-18T06:27:56Z</time>
      </trkpt>
      <trkpt lat="45.805090013891459" lon="7.916500009596348">
        <ele>1433</ele>
        <time>2010-07-18T06:28:15Z</time>
      </trkpt>
      <trkpt lat="45.804979959502816" lon="7.916349973529577">
        <ele>1435.9000000000001</ele>
        <time>2010-07-18T06:28:34Z</time>
      </trkpt>
      <trkpt lat="45.804969985038042" lon="7.916339999064803">
        <ele>1435.9000000000001</ele>
        <time>2010-07-18T06:28:35Z</time>
      </trkpt>
      <trkpt lat="45.804809974506497" lon="7.916149981319904">
        <ele>1437.3</ele>
        <time>2010-07-18T06:28:54Z</time>
      </trkpt>
      <trkpt lat="45.804669996723533" lon="7.915889974683523">
        <ele>1439.7</ele>
        <time>2010-07-18T06:29:16Z</time>
      </trkpt>
      <trkpt lat="45.80462004058063" lon="7.91568998247385">
        <ele>1442.5999999999999</ele>
        <time>2010-07-18T06:29:33Z</time>
      </trkpt>
      <trkpt lat="45.80462004058063" lon="7.915499964728952">
        <ele>1445.5</ele>
        <time>2010-07-18T06:29:51Z</time>
      </trkpt>
      <trkpt lat="45.804609982296824" lon="7.915340038016439">
        <ele>1446.9000000000001</ele>
        <time>2010-07-18T06:30:03Z</time>
      </trkpt>
      <trkpt lat="45.804549967870116" lon="7.915069973096252">
        <ele>1450.3</ele>
        <time>2010-07-18T06:30:22Z</time>
      </trkpt>
      <trkpt lat="45.804439997300506" lon="7.914769984781742">
        <ele>1452.7</ele>
        <time>2010-07-18T06:30:44Z</time>
      </trkpt>
      <trkpt lat="45.804360033944249" lon="7.914449963718653">
        <ele>1455.0999999999999</ele>
        <time>2010-07-18T06:31:07Z</time>
      </trkpt>
      <trkpt lat="45.804289961233735" lon="7.914260029792786">
        <ele>1458.5</ele>
        <time>2010-07-18T06:31:24Z</time>
      </trkpt>
      <trkpt lat="45.804189965128899" lon="7.914030030369759">
        <ele>1460.8</ele>
        <time>2010-07-18T06:31:43Z</time>
      </trkpt>
      <trkpt lat="45.804070020094514" lon="7.913770023733378">
        <ele>1463.7</ele>
        <time>2010-07-18T06:32:06Z</time>
      </trkpt>
      <trkpt lat="45.80401998013258" lon="7.913659969344735">
        <ele>1464.7</ele>
        <time>2010-07-18T06:32:18Z</time>
      </trkpt>
      <trkpt lat="45.803919984027743" lon="7.913549998775125">
        <ele>1464.7</ele>
        <time>2010-07-18T06:32:34Z</time>
      </trkpt>
      <trkpt lat="45.803749999031425" lon="7.913329973816872">
        <ele>1466.0999999999999</ele>
        <time>2010-07-18T06:32:55Z</time>
      </trkpt>
      <trkpt lat="45.803619995713234" lon="7.913039959967136">
        <ele>1467.0999999999999</ele>
        <time>2010-07-18T06:33:15Z</time>
      </trkpt>
      <trkpt lat="45.803440036252141" lon="7.912780037149787">
        <ele>1469</ele>
        <time>2010-07-18T06:33:35Z</time>
      </trkpt>
      <trkpt lat="45.803220011293888" lon="7.912490023300052">
        <ele>1470.5</ele>
        <time>2010-07-18T06:33:59Z</time>
      </trkpt>
      <trkpt lat="45.803020019084215" lon="7.912209983915091">
        <ele>1472.4000000000001</ele>
        <time>2010-07-18T06:34:22Z</time>
      </trkpt>
      <trkpt lat="45.802820026874542" lon="7.911970010027289">
        <ele>1473.4000000000001</ele>
        <time>2010-07-18T06:34:43Z</time>
      </trkpt>
      <trkpt lat="45.802609976381063" lon="7.911719977855682">
        <ele>1474.3</ele>
        <time>2010-07-18T06:35:04Z</time>
      </trkpt>
      <trkpt lat="45.802379976958036" lon="7.911589974537492">
        <ele>1475.8</ele>
        <time>2010-07-18T06:35:23Z</time>
      </trkpt>
      <trkpt lat="45.802170010283589" lon="7.911449996754527">
        <ele>1478.2</ele>
        <time>2010-07-18T06:35:43Z</time>
      </trkpt>
      <trkpt lat="45.801970018073916" lon="7.911310018971562">
        <ele>1479.5999999999999</ele>
        <time>2010-07-18T06:36:04Z</time>
      </trkpt>
      <trkpt lat="45.801719985902309" lon="7.911210022866726">
        <ele>1481.0999999999999</ele>
        <time>2010-07-18T06:36:25Z</time>
      </trkpt>
      <trkpt lat="45.80144003033638" lon="7.9112199973315">
        <ele>1483</ele>
        <time>2010-07-18T06:36:48Z</time>
      </trkpt>
      <trkpt lat="45.801329975947738" lon="7.91119996458292">
        <ele>1482.5</ele>
        <time>2010-07-18T06:37:00Z</time>
      </trkpt>
      <trkpt lat="45.801199972629547" lon="7.911080019548535">
        <ele>1482.5</ele>
        <time>2010-07-18T06:37:19Z</time>
      </trkpt>
      <trkpt lat="45.801199972629547" lon="7.911080019548535">
        <ele>1483</ele>
        <time>2010-07-18T06:37:21Z</time>
      </trkpt>
      <trkpt lat="45.801380015909672" lon="7.911259979009628">
        <ele>1482.5</ele>
        <time>2010-07-18T06:37:38Z</time>
      </trkpt>
      <trkpt lat="45.801350008696318" lon="7.91124003008008">
        <ele>1483</ele>
        <time>2010-07-18T06:37:57Z</time>
      </trkpt>
      <trkpt lat="45.801189998164773" lon="7.911029979586601">
        <ele>1482.5</ele>
        <time>2010-07-18T06:38:16Z</time>
      </trkpt>
      <trkpt lat="45.801169965416193" lon="7.910929983481765">
        <ele>1482.5</ele>
        <time>2010-07-18T06:38:28Z</time>
      </trkpt>
      <trkpt lat="45.801139958202839" lon="7.910699984058738">
        <ele>1482.5</ele>
        <time>2010-07-18T06:39:07Z</time>
      </trkpt>
      <trkpt lat="45.801050020381808" lon="7.910379962995648">
        <ele>1483.5</ele>
        <time>2010-07-18T06:39:26Z</time>
      </trkpt>
      <trkpt lat="45.800860002636909" lon="7.910109981894493">
        <ele>1484.9000000000001</ele>
        <time>2010-07-18T06:39:46Z</time>
      </trkpt>
      <trkpt lat="45.800690017640591" lon="7.910030018538237">
        <ele>1487.8</ele>
        <time>2010-07-18T06:40:04Z</time>
      </trkpt>
      <trkpt lat="45.800639977678657" lon="7.910030018538237">
        <ele>1487.8</ele>
        <time>2010-07-18T06:40:08Z</time>
      </trkpt>
      <trkpt lat="45.800569988787174" lon="7.909990036860108">
        <ele>1487.8</ele>
        <time>2010-07-18T06:40:20Z</time>
      </trkpt>
      <trkpt lat="45.800750032067299" lon="7.909990036860108">
        <ele>1487.3</ele>
        <time>2010-07-18T06:40:38Z</time>
      </trkpt>
      <trkpt lat="45.80083996988833" lon="7.910000011324883">
        <ele>1487.3</ele>
        <time>2010-07-18T06:40:47Z</time>
      </trkpt>
      <trkpt lat="45.800869977101684" lon="7.909970004111528">
        <ele>1488.7</ele>
        <time>2010-07-18T06:40:58Z</time>
      </trkpt>
      <trkpt lat="45.800829995423555" lon="7.9099300224334">
        <ele>1489.2</ele>
        <time>2010-07-18T06:41:02Z</time>
      </trkpt>
      <trkpt lat="45.800699992105365" lon="7.909749979153276">
        <ele>1492.5999999999999</ele>
        <time>2010-07-18T06:41:22Z</time>
      </trkpt>
      <trkpt lat="45.80053998157382" lon="7.909600026905537">
        <ele>1494.5</ele>
        <time>2010-07-18T06:41:42Z</time>
      </trkpt>
      <trkpt lat="45.800400003790855" lon="7.909449990838766">
        <ele>1496</ele>
        <time>2010-07-18T06:42:00Z</time>
      </trkpt>
      <trkpt lat="45.800320040434599" lon="7.909389976412058">
        <ele>1497.9000000000001</ele>
        <time>2010-07-18T06:42:12Z</time>
      </trkpt>
      <trkpt lat="45.800249967724085" lon="7.909270031377673">
        <ele>1499.8</ele>
        <time>2010-07-18T06:42:26Z</time>
      </trkpt>
      <trkpt lat="45.800170004367828" lon="7.909080013632774">
        <ele>1501.7</ele>
        <time>2010-07-18T06:42:43Z</time>
      </trkpt>
      <trkpt lat="45.800139997154474" lon="7.90905000641942">
        <ele>1500.7</ele>
        <time>2010-07-18T06:42:54Z</time>
      </trkpt>
      <trkpt lat="45.800119964405894" lon="7.909040031954646">
        <ele>1503.5999999999999</ele>
        <time>2010-07-18T06:42:55Z</time>
      </trkpt>
      <trkpt lat="45.80010998994112" lon="7.909040031954646">
        <ele>1503.2</ele>
        <time>2010-07-18T06:42:57Z</time>
      </trkpt>
      <trkpt lat="45.800090041011572" lon="7.90902997367084">
        <ele>1501.7</ele>
        <time>2010-07-18T06:42:58Z</time>
      </trkpt>
      <trkpt lat="45.799970012158155" lon="7.908969959244132">
        <ele>1503.2</ele>
        <time>2010-07-18T06:43:14Z</time>
      </trkpt>
      <trkpt lat="45.799960037693381" lon="7.908980017527938">
        <ele>1503.5999999999999</ele>
        <time>2010-07-18T06:43:40Z</time>
      </trkpt>
      <trkpt lat="45.800149971619248" lon="7.90905000641942">
        <ele>1502.7</ele>
        <time>2010-07-18T06:43:59Z</time>
      </trkpt>
      <trkpt lat="45.800149971619248" lon="7.909040031954646">
        <ele>1502.2</ele>
        <time>2010-07-18T06:44:29Z</time>
      </trkpt>
      <trkpt lat="45.800209986045957" lon="7.909059980884194">
        <ele>1502.7</ele>
        <time>2010-07-18T06:44:50Z</time>
      </trkpt>
      <trkpt lat="45.800209986045957" lon="7.909070039168">
        <ele>1502.2</ele>
        <time>2010-07-18T06:44:57Z</time>
      </trkpt>
      <trkpt lat="45.800019968301058" lon="7.909010024741292">
        <ele>1503.2</ele>
        <time>2010-07-18T06:45:13Z</time>
      </trkpt>
      <trkpt lat="45.799970012158155" lon="7.908989991992712">
        <ele>1503.5999999999999</ele>
        <time>2010-07-18T06:45:36Z</time>
      </trkpt>
      <trkpt lat="45.799889964982867" lon="7.908989991992712">
        <ele>1503.5999999999999</ele>
        <time>2010-07-18T06:47:05Z</time>
      </trkpt>
      <trkpt lat="45.79965996555984" lon="7.908989991992712">
        <ele>1504.0999999999999</ele>
        <time>2010-07-18T06:47:27Z</time>
      </trkpt>
      <trkpt lat="45.799489980563521" lon="7.908910028636456">
        <ele>1506</ele>
        <time>2010-07-18T06:47:43Z</time>
      </trkpt>
      <trkpt lat="45.799399958923459" lon="7.908910028636456">
        <ele>1506.5</ele>
        <time>2010-07-18T06:47:55Z</time>
      </trkpt>
      <trkpt lat="45.79922997392714" lon="7.908869963139296">
        <ele>1508.5</ele>
        <time>2010-07-18T06:48:14Z</time>
      </trkpt>
      <trkpt lat="45.799169959500432" lon="7.908889995887876">
        <ele>1509.9000000000001</ele>
        <time>2010-07-18T06:48:29Z</time>
      </trkpt>
      <trkpt lat="45.799169959500432" lon="7.908840039744973">
        <ele>1509.9000000000001</ele>
        <time>2010-07-18T06:48:41Z</time>
      </trkpt>
      <trkpt lat="45.799029981717467" lon="7.908759992569685">
        <ele>1510.9000000000001</ele>
        <time>2010-07-18T06:48:56Z</time>
      </trkpt>
      <trkpt lat="45.798980025574565" lon="7.908759992569685">
        <ele>1510.4000000000001</ele>
        <time>2010-07-18T06:49:04Z</time>
      </trkpt>
      <trkpt lat="45.798829989507794" lon="7.908789999783039">
        <ele>1511.8</ele>
        <time>2010-07-18T06:49:15Z</time>
      </trkpt>
      <trkpt lat="45.798760000616312" lon="7.908580033108592">
        <ele>1514.2</ele>
        <time>2010-07-18T06:49:31Z</time>
      </trkpt>
      <trkpt lat="45.79869001172483" lon="7.90849001146853">
        <ele>1517.0999999999999</ele>
        <time>2010-07-18T06:49:46Z</time>
      </trkpt>
      <trkpt lat="45.798550033941865" lon="7.908399989828467">
        <ele>1519.5</ele>
        <time>2010-07-18T06:50:02Z</time>
      </trkpt>
      <trkpt lat="45.798479961231351" lon="7.908309968188405">
        <ele>1521.9000000000001</ele>
        <time>2010-07-18T06:50:17Z</time>
      </trkpt>
      <trkpt lat="45.798409972339869" lon="7.908199997618794">
        <ele>1524.8</ele>
        <time>2010-07-18T06:50:32Z</time>
      </trkpt>
      <trkpt lat="45.798339983448386" lon="7.908109975978732">
        <ele>1527.7</ele>
        <time>2010-07-18T06:50:48Z</time>
      </trkpt>
      <trkpt lat="45.79823998734355" lon="7.908049961552024">
        <ele>1530.5999999999999</ele>
        <time>2010-07-18T06:51:04Z</time>
      </trkpt>
      <trkpt lat="45.798079976812005" lon="7.907879976555705">
        <ele>1531.5</ele>
        <time>2010-07-18T06:51:20Z</time>
      </trkpt>
      <trkpt lat="45.798019962385297" lon="7.907540006563067">
        <ele>1530.5999999999999</ele>
        <time>2010-07-18T06:51:43Z</time>
      </trkpt>
      <trkpt lat="45.797979980707169" lon="7.907389970496297">
        <ele>1532</ele>
        <time>2010-07-18T06:51:53Z</time>
      </trkpt>
      <trkpt lat="45.797930024564266" lon="7.907319981604815">
        <ele>1531.5</ele>
        <time>2010-07-18T06:51:58Z</time>
      </trkpt>
      <trkpt lat="45.79780999571085" lon="7.906989986076951">
        <ele>1532.5</ele>
        <time>2010-07-18T06:52:21Z</time>
      </trkpt>
      <trkpt lat="45.797719974070787" lon="7.906740037724376">
        <ele>1533</ele>
        <time>2010-07-18T06:52:37Z</time>
      </trkpt>
      <trkpt lat="45.797679992392659" lon="7.906590001657605">
        <ele>1535.4000000000001</ele>
        <time>2010-07-18T06:52:52Z</time>
      </trkpt>
      <trkpt lat="45.797640010714531" lon="7.906529987230897">
        <ele>1535.9000000000001</ele>
        <time>2010-07-18T06:52:57Z</time>
      </trkpt>
      <trkpt lat="45.797549989074469" lon="7.906450023874641">
        <ele>1536.3</ele>
        <time>2010-07-18T06:53:08Z</time>
      </trkpt>
      <trkpt lat="45.797440018504858" lon="7.906329995021224">
        <ele>1536.8</ele>
        <time>2010-07-18T06:53:20Z</time>
      </trkpt>
      <trkpt lat="45.79740003682673" lon="7.906290013343096">
        <ele>1536.3</ele>
        <time>2010-07-18T06:53:24Z</time>
      </trkpt>
      <trkpt lat="45.797219993546605" lon="7.906220024451613">
        <ele>1536.3</ele>
        <time>2010-07-18T06:53:41Z</time>
      </trkpt>
      <trkpt lat="45.797210019081831" lon="7.906199991703033">
        <ele>1536.3</ele>
        <time>2010-07-18T06:53:42Z</time>
      </trkpt>
      <trkpt lat="45.797040034085512" lon="7.906009973958135">
        <ele>1534.4000000000001</ele>
        <time>2010-07-18T06:54:00Z</time>
      </trkpt>
      <trkpt lat="45.796869965270162" lon="7.905820040032268">
        <ele>1534.9000000000001</ele>
        <time>2010-07-18T06:54:17Z</time>
      </trkpt>
      <trkpt lat="45.796790001913905" lon="7.905579982325435">
        <ele>1535.4000000000001</ele>
        <time>2010-07-18T06:54:33Z</time>
      </trkpt>
      <trkpt lat="45.796759994700551" lon="7.905489960685372">
        <ele>1535.4000000000001</ele>
        <time>2010-07-18T06:54:51Z</time>
      </trkpt>
      <trkpt lat="45.79665002413094" lon="7.905300026759505">
        <ele>1536.3</ele>
        <time>2010-07-18T06:55:18Z</time>
      </trkpt>
      <trkpt lat="45.796509962528944" lon="7.90501001290977">
        <ele>1536.3</ele>
        <time>2010-07-18T06:55:34Z</time>
      </trkpt>
      <trkpt lat="45.796350035816431" lon="7.904980005696416">
        <ele>1537.8</ele>
        <time>2010-07-18T06:55:49Z</time>
      </trkpt>
      <trkpt lat="45.796330003067851" lon="7.904970031231642">
        <ele>1539.2</ele>
        <time>2010-07-18T06:56:19Z</time>
      </trkpt>
      <trkpt lat="45.796360010281205" lon="7.904910016804934">
        <ele>1541.0999999999999</ele>
        <time>2010-07-18T06:56:29Z</time>
      </trkpt>
      <trkpt lat="45.796390017494559" lon="7.904910016804934">
        <ele>1541.5999999999999</ele>
        <time>2010-07-18T06:56:32Z</time>
      </trkpt>
      <trkpt lat="45.796460006386042" lon="7.904829969629645">
        <ele>1545</ele>
        <time>2010-07-18T06:56:47Z</time>
      </trkpt>
      <trkpt lat="45.796509962528944" lon="7.904789987951517">
        <ele>1547.4000000000001</ele>
        <time>2010-07-18T06:56:55Z</time>
      </trkpt>
      <trkpt lat="45.796580035239458" lon="7.904680017381907">
        <ele>1549.8</ele>
        <time>2010-07-18T06:57:09Z</time>
      </trkpt>
      <trkpt lat="45.79665002413094" lon="7.904529981315136">
        <ele>1552.2</ele>
        <time>2010-07-18T06:57:22Z</time>
      </trkpt>
      <trkpt lat="45.796710038557649" lon="7.904420010745525">
        <ele>1555.5</ele>
        <time>2010-07-18T06:57:37Z</time>
      </trkpt>
      <trkpt lat="45.796699980273843" lon="7.904299981892109">
        <ele>1558.4000000000001</ele>
        <time>2010-07-18T06:57:53Z</time>
      </trkpt>
      <trkpt lat="45.79665002413094" lon="7.904269974678755">
        <ele>1561.3</ele>
        <time>2010-07-18T06:58:08Z</time>
      </trkpt>
      <trkpt lat="45.796580035239458" lon="7.904329989105463">
        <ele>1563.7</ele>
        <time>2010-07-18T06:58:21Z</time>
      </trkpt>
      <trkpt lat="45.796480039134622" lon="7.904390003532171">
        <ele>1567.0999999999999</ele>
        <time>2010-07-18T06:58:36Z</time>
      </trkpt>
      <trkpt lat="45.79649998806417" lon="7.904280032962561">
        <ele>1569.5</ele>
        <time>2010-07-18T06:58:48Z</time>
      </trkpt>
      <trkpt lat="45.796529995277524" lon="7.904160004109144">
        <ele>1572.4000000000001</ele>
        <time>2010-07-18T06:59:03Z</time>
      </trkpt>
      <trkpt lat="45.796569976955652" lon="7.904050033539534">
        <ele>1575.3</ele>
        <time>2010-07-18T06:59:20Z</time>
      </trkpt>
      <trkpt lat="45.796529995277524" lon="7.903960011899471">
        <ele>1576.7</ele>
        <time>2010-07-18T06:59:44Z</time>
      </trkpt>
      <trkpt lat="45.79649998806417" lon="7.903879964724183">
        <ele>1579.5999999999999</ele>
        <time>2010-07-18T06:59:56Z</time>
      </trkpt>
      <trkpt lat="45.796509962528944" lon="7.903790026903153">
        <ele>1582</ele>
        <time>2010-07-18T07:00:12Z</time>
      </trkpt>
      <trkpt lat="45.796450031921268" lon="7.90372003801167">
        <ele>1585.4000000000001</ele>
        <time>2010-07-18T07:00:27Z</time>
      </trkpt>
      <trkpt lat="45.796360010281205" lon="7.90370000526309">
        <ele>1586.8</ele>
        <time>2010-07-18T07:00:39Z</time>
      </trkpt>
      <trkpt lat="45.796209974214435" lon="7.90359003469348">
        <ele>1589.7</ele>
        <time>2010-07-18T07:00:58Z</time>
      </trkpt>
      <trkpt lat="45.796079970896244" lon="7.90354996919632">
        <ele>1592.5</ele>
        <time>2010-07-18T07:01:14Z</time>
      </trkpt>
      <trkpt lat="45.795979974791408" lon="7.903470005840063">
        <ele>1595.4000000000001</ele>
        <time>2010-07-18T07:01:29Z</time>
      </trkpt>
      <trkpt lat="45.795930018648505" lon="7.903360035270453">
        <ele>1597.9000000000001</ele>
        <time>2010-07-18T07:01:43Z</time>
      </trkpt>
      <trkpt lat="45.795900011435151" lon="7.903289962559938">
        <ele>1598.3</ele>
        <time>2010-07-18T07:01:51Z</time>
      </trkpt>
      <trkpt lat="45.795930018648505" lon="7.903200024738908">
        <ele>1601.7</ele>
        <time>2010-07-18T07:02:04Z</time>
      </trkpt>
      <trkpt lat="45.796000007539988" lon="7.903209999203682">
        <ele>1604.0999999999999</ele>
        <time>2010-07-18T07:02:19Z</time>
      </trkpt>
      <trkpt lat="45.79609002918005" lon="7.9031400103122">
        <ele>1607</ele>
        <time>2010-07-18T07:02:35Z</time>
      </trkpt>
      <trkpt lat="45.796179967001081" lon="7.903100028634071">
        <ele>1609.9000000000001</ele>
        <time>2010-07-18T07:02:51Z</time>
      </trkpt>
      <trkpt lat="45.796279963105917" lon="7.903010006994009">
        <ele>1612.3</ele>
        <time>2010-07-18T07:03:09Z</time>
      </trkpt>
      <trkpt lat="45.796330003067851" lon="7.902910010889173">
        <ele>1614.7</ele>
        <time>2010-07-18T07:03:21Z</time>
      </trkpt>
      <trkpt lat="45.796390017494559" lon="7.902849996462464">
        <ele>1616.5999999999999</ele>
        <time>2010-07-18T07:03:35Z</time>
      </trkpt>
      <trkpt lat="45.796480039134622" lon="7.90281998924911">
        <ele>1620</ele>
        <time>2010-07-18T07:03:52Z</time>
      </trkpt>
      <trkpt lat="45.796550028026104" lon="7.902770033106208">
        <ele>1622.4000000000001</ele>
        <time>2010-07-18T07:04:07Z</time>
      </trkpt>
      <trkpt lat="45.796590009704232" lon="7.902719993144274">
        <ele>1625.7</ele>
        <time>2010-07-18T07:04:21Z</time>
      </trkpt>
      <trkpt lat="45.796539969742298" lon="7.902699960395694">
        <ele>1627.7</ele>
        <time>2010-07-18T07:04:34Z</time>
      </trkpt>
      <trkpt lat="45.796580035239458" lon="7.902619997039437">
        <ele>1631</ele>
        <time>2010-07-18T07:04:49Z</time>
      </trkpt>
      <trkpt lat="45.79662999138236" lon="7.902499968186021">
        <ele>1633.4000000000001</ele>
        <time>2010-07-18T07:05:05Z</time>
      </trkpt>
      <trkpt lat="45.796659998595715" lon="7.902429979294539">
        <ele>1636.3</ele>
        <time>2010-07-18T07:05:16Z</time>
      </trkpt>
      <trkpt lat="45.796690005809069" lon="7.902320008724928">
        <ele>1636.3</ele>
        <time>2010-07-18T07:05:28Z</time>
      </trkpt>
      <trkpt lat="45.796680031344295" lon="7.902269968762994">
        <ele>1641.5999999999999</ele>
        <time>2010-07-18T07:06:02Z</time>
      </trkpt>
      <trkpt lat="45.79662999138236" lon="7.902169972658157">
        <ele>1644.5</ele>
        <time>2010-07-18T07:06:32Z</time>
      </trkpt>
      <trkpt lat="45.796699980273843" lon="7.902069976553321">
        <ele>1647.4000000000001</ele>
        <time>2010-07-18T07:06:48Z</time>
      </trkpt>
      <trkpt lat="45.796750020235777" lon="7.901950031518936">
        <ele>1650.7</ele>
        <time>2010-07-18T07:07:01Z</time>
      </trkpt>
      <trkpt lat="45.796759994700551" lon="7.901950031518936">
        <ele>1650.7</ele>
        <time>2010-07-18T07:07:03Z</time>
      </trkpt>
      <trkpt lat="45.796810034662485" lon="7.901890017092228">
        <ele>1653.0999999999999</ele>
        <time>2010-07-18T07:07:16Z</time>
      </trkpt>
      <trkpt lat="45.796869965270162" lon="7.901799995452166">
        <ele>1656</ele>
        <time>2010-07-18T07:07:30Z</time>
      </trkpt>
      <trkpt lat="45.796859990805387" lon="7.901709973812103">
        <ele>1658.9000000000001</ele>
        <time>2010-07-18T07:07:44Z</time>
      </trkpt>
      <trkpt lat="45.796820009127259" lon="7.901649959385395">
        <ele>1661.3</ele>
        <time>2010-07-18T07:07:58Z</time>
      </trkpt>
      <trkpt lat="45.796899972483516" lon="7.90153001435101">
        <ele>1663.7</ele>
        <time>2010-07-18T07:08:14Z</time>
      </trkpt>
      <trkpt lat="45.796940037980676" lon="7.901439992710948">
        <ele>1666.5999999999999</ele>
        <time>2010-07-18T07:08:29Z</time>
      </trkpt>
      <trkpt lat="45.796959986910224" lon="7.901309989392757">
        <ele>1669.5</ele>
        <time>2010-07-18T07:08:45Z</time>
      </trkpt>
      <trkpt lat="45.796969961374998" lon="7.901230026036501">
        <ele>1670.9000000000001</ele>
        <time>2010-07-18T07:08:56Z</time>
      </trkpt>
      <trkpt lat="45.79695001244545" lon="7.901089964434505">
        <ele>1673.3</ele>
        <time>2010-07-18T07:09:12Z</time>
      </trkpt>
      <trkpt lat="45.796920005232096" lon="7.900919979438186">
        <ele>1674.8</ele>
        <time>2010-07-18T07:09:27Z</time>
      </trkpt>
      <trkpt lat="45.796880023553967" lon="7.900830041617155">
        <ele>1677.2</ele>
        <time>2010-07-18T07:09:42Z</time>
      </trkpt>
      <trkpt lat="45.796840041875839" lon="7.900710012763739">
        <ele>1679.5999999999999</ele>
        <time>2010-07-18T07:09:58Z</time>
      </trkpt>
      <trkpt lat="45.796799976378679" lon="7.900599958375096">
        <ele>1682.4000000000001</ele>
        <time>2010-07-18T07:10:13Z</time>
      </trkpt>
      <trkpt lat="45.796780027449131" lon="7.900489987805486">
        <ele>1684.4000000000001</ele>
        <time>2010-07-18T07:10:25Z</time>
      </trkpt>
      <trkpt lat="45.796780027449131" lon="7.900359984487295">
        <ele>1686.3</ele>
        <time>2010-07-18T07:10:40Z</time>
      </trkpt>
      <trkpt lat="45.796799976378679" lon="7.900259988382459">
        <ele>1688.2</ele>
        <time>2010-07-18T07:10:52Z</time>
      </trkpt>
      <trkpt lat="45.796799976378679" lon="7.900150017812848">
        <ele>1689.7</ele>
        <time>2010-07-18T07:11:03Z</time>
      </trkpt>
      <trkpt lat="45.796780027449131" lon="7.899950025603175">
        <ele>1693</ele>
        <time>2010-07-18T07:11:20Z</time>
      </trkpt>
      <trkpt lat="45.796820009127259" lon="7.899839971214533">
        <ele>1695.4000000000001</ele>
        <time>2010-07-18T07:11:37Z</time>
      </trkpt>
      <trkpt lat="45.796790001913905" lon="7.899799989536405">
        <ele>1697.8</ele>
        <time>2010-07-18T07:11:50Z</time>
      </trkpt>
      <trkpt lat="45.796729987487197" lon="7.899760007858276">
        <ele>1700.2</ele>
        <time>2010-07-18T07:12:05Z</time>
      </trkpt>
      <trkpt lat="45.796739961951971" lon="7.89966001175344">
        <ele>1713.7</ele>
        <time>2010-07-18T07:13:21Z</time>
      </trkpt>
      <trkpt lat="45.796639965847135" lon="7.899620030075312">
        <ele>1716.0999999999999</ele>
        <time>2010-07-18T07:13:37Z</time>
      </trkpt>
      <trkpt lat="45.796529995277524" lon="7.899569990113378">
        <ele>1718.5</ele>
        <time>2010-07-18T07:13:52Z</time>
      </trkpt>
      <trkpt lat="45.796399991959333" lon="7.899569990113378">
        <ele>1720.4000000000001</ele>
        <time>2010-07-18T07:14:06Z</time>
      </trkpt>
      <trkpt lat="45.796299995854497" lon="7.899579964578152">
        <ele>1723.3</ele>
        <time>2010-07-18T07:14:20Z</time>
      </trkpt>
      <trkpt lat="45.79619999974966" lon="7.899630004540086">
        <ele>1726.2</ele>
        <time>2010-07-18T07:14:35Z</time>
      </trkpt>
      <trkpt lat="45.796120036393404" lon="7.899620030075312">
        <ele>1727.5999999999999</ele>
        <time>2010-07-18T07:14:47Z</time>
      </trkpt>
      <trkpt lat="45.796030014753342" lon="7.899569990113378">
        <ele>1731</ele>
        <time>2010-07-18T07:15:03Z</time>
      </trkpt>
      <trkpt lat="45.795960025861859" lon="7.899530008435249">
        <ele>1733.9000000000001</ele>
        <time>2010-07-18T07:15:21Z</time>
      </trkpt>
      <trkpt lat="45.796009982004762" lon="7.899430012330413">
        <ele>1737.2</ele>
        <time>2010-07-18T07:15:37Z</time>
      </trkpt>
      <trkpt lat="45.796079970896244" lon="7.899339990690351">
        <ele>1740.0999999999999</ele>
        <time>2010-07-18T07:15:56Z</time>
      </trkpt>
      <trkpt lat="45.796130010858178" lon="7.899270001798868">
        <ele>1743</ele>
        <time>2010-07-18T07:16:12Z</time>
      </trkpt>
      <trkpt lat="45.796239981427789" lon="7.899219961836934">
        <ele>1746.4000000000001</ele>
        <time>2010-07-18T07:17:06Z</time>
      </trkpt>
      <trkpt lat="45.796250039711595" lon="7.899160031229258">
        <ele>1747.8</ele>
        <time>2010-07-18T07:17:20Z</time>
      </trkpt>
      <trkpt lat="45.796260014176369" lon="7.899049976840615">
        <ele>1750.7</ele>
        <time>2010-07-18T07:17:38Z</time>
      </trkpt>
      <trkpt lat="45.796260014176369" lon="7.898940006271005">
        <ele>1752.5999999999999</ele>
        <time>2010-07-18T07:17:49Z</time>
      </trkpt>
      <trkpt lat="45.796299995854497" lon="7.898789970204234">
        <ele>1754.0999999999999</ele>
        <time>2010-07-18T07:18:04Z</time>
      </trkpt>
      <trkpt lat="45.796350035816431" lon="7.898679999634624">
        <ele>1757.4000000000001</ele>
        <time>2010-07-18T07:18:19Z</time>
      </trkpt>
      <trkpt lat="45.796420024707913" lon="7.898570029065013">
        <ele>1758.9000000000001</ele>
        <time>2010-07-18T07:18:31Z</time>
      </trkpt>
      <trkpt lat="45.796439973637462" lon="7.898310022428632">
        <ele>1761.7</ele>
        <time>2010-07-18T07:18:54Z</time>
      </trkpt>
      <trkpt lat="45.796439973637462" lon="7.898129979148507">
        <ele>1765.0999999999999</ele>
        <time>2010-07-18T07:19:09Z</time>
      </trkpt>
      <trkpt lat="45.796439973637462" lon="7.898040041327477">
        <ele>1766.5999999999999</ele>
        <time>2010-07-18T07:19:21Z</time>
      </trkpt>
      <trkpt lat="45.796439973637462" lon="7.897839965298772">
        <ele>1769</ele>
        <time>2010-07-18T07:19:35Z</time>
      </trkpt>
      <trkpt lat="45.796379959210753" lon="7.897599991410971">
        <ele>1771.4000000000001</ele>
        <time>2010-07-18T07:19:56Z</time>
      </trkpt>
      <trkpt lat="45.796350035816431" lon="7.897479962557554">
        <ele>1773.8</ele>
        <time>2010-07-18T07:20:07Z</time>
      </trkpt>
      <trkpt lat="45.796339977532625" lon="7.897450039163232">
        <ele>1773.8</ele>
        <time>2010-07-18T07:20:11Z</time>
      </trkpt>
      <trkpt lat="45.796299995854497" lon="7.89733998477459">
        <ele>1775.2</ele>
        <time>2010-07-18T07:20:22Z</time>
      </trkpt>
      <trkpt lat="45.796309970319271" lon="7.897239988669753">
        <ele>1777.0999999999999</ele>
        <time>2010-07-18T07:20:31Z</time>
      </trkpt>
      <trkpt lat="45.796279963105917" lon="7.897090036422014">
        <ele>1779.0999999999999</ele>
        <time>2010-07-18T07:20:45Z</time>
      </trkpt>
      <trkpt lat="45.796269988641143" lon="7.896960033103824">
        <ele>1781.5</ele>
        <time>2010-07-18T07:20:56Z</time>
      </trkpt>
      <trkpt lat="45.796269988641143" lon="7.896940000355244">
        <ele>1781</ele>
        <time>2010-07-18T07:20:57Z</time>
      </trkpt>
      <trkpt lat="45.796239981427789" lon="7.896870011463761">
        <ele>1782.9000000000001</ele>
        <time>2010-07-18T07:21:08Z</time>
      </trkpt>
      <trkpt lat="45.796209974214435" lon="7.896800022572279">
        <ele>1786.3</ele>
        <time>2010-07-18T07:21:21Z</time>
      </trkpt>
      <trkpt lat="45.796169992536306" lon="7.896749982610345">
        <ele>1787.7</ele>
        <time>2010-07-18T07:21:28Z</time>
      </trkpt>
      <trkpt lat="45.796130010858178" lon="7.89663003757596">
        <ele>1790.5999999999999</ele>
        <time>2010-07-18T07:21:41Z</time>
      </trkpt>
      <trkpt lat="45.796160018071532" lon="7.896449994295836">
        <ele>1793</ele>
        <time>2010-07-18T07:21:55Z</time>
      </trkpt>
      <trkpt lat="45.796179967001081" lon="7.896280009299517">
        <ele>1794.4000000000001</ele>
        <time>2010-07-18T07:22:08Z</time>
      </trkpt>
      <trkpt lat="45.796239981427789" lon="7.896219994872809">
        <ele>1797.8</ele>
        <time>2010-07-18T07:22:26Z</time>
      </trkpt>
      <trkpt lat="45.796269988641143" lon="7.896170038729906">
        <ele>1800.2</ele>
        <time>2010-07-18T07:22:39Z</time>
      </trkpt>
      <trkpt lat="45.796279963105917" lon="7.896040035411716">
        <ele>1801.5999999999999</ele>
        <time>2010-07-18T07:22:53Z</time>
      </trkpt>
      <trkpt lat="45.796250039711595" lon="7.895850017666817">
        <ele>1803.5999999999999</ele>
        <time>2010-07-18T07:23:09Z</time>
      </trkpt>
      <trkpt lat="45.79622003249824" lon="7.895720014348626">
        <ele>1806</ele>
        <time>2010-07-18T07:23:24Z</time>
      </trkpt>
      <trkpt lat="45.796209974214435" lon="7.895580036565661">
        <ele>1806.5</ele>
        <time>2010-07-18T07:23:36Z</time>
      </trkpt>
      <trkpt lat="45.796169992536306" lon="7.895439974963665">
        <ele>1808.4000000000001</ele>
        <time>2010-07-18T07:23:48Z</time>
      </trkpt>
      <trkpt lat="45.796120036393404" lon="7.895309971645474">
        <ele>1810.3</ele>
        <time>2010-07-18T07:24:03Z</time>
      </trkpt>
      <trkpt lat="45.79606999643147" lon="7.89519002661109">
        <ele>1812.7</ele>
        <time>2010-07-18T07:24:18Z</time>
      </trkpt>
      <trkpt lat="45.796030014753342" lon="7.895079972222447">
        <ele>1814.0999999999999</ele>
        <time>2010-07-18T07:24:30Z</time>
      </trkpt>
      <trkpt lat="45.796000007539988" lon="7.894979976117611">
        <ele>1817</ele>
        <time>2010-07-18T07:24:45Z</time>
      </trkpt>
      <trkpt lat="45.795970000326633" lon="7.894900012761354">
        <ele>1818.5</ele>
        <time>2010-07-18T07:24:59Z</time>
      </trkpt>
      <trkpt lat="45.795949967578053" lon="7.894749976694584">
        <ele>1819.4000000000001</ele>
        <time>2010-07-18T07:25:09Z</time>
      </trkpt>
      <trkpt lat="45.795809989795089" lon="7.894270028918982">
        <ele>1817.5</ele>
        <time>2012-10-02T09:04:32Z</time>
      </trkpt>
      <trkpt lat="45.795600023120642" lon="7.893559997901321">
        <ele>1841.9000000000001</ele>
        <time>2012-10-02T09:05:51Z</time>
      </trkpt>
      <trkpt lat="45.795440012589097" lon="7.893239976838231">
        <ele>1844.3</ele>
        <time>2012-10-02T09:06:27Z</time>
      </trkpt>
      <trkpt lat="45.795359965413809" lon="7.892920039594173">
        <ele>1845.9000000000001</ele>
        <time>2012-10-02T09:06:54Z</time>
      </trkpt>
      <trkpt lat="45.795349990949035" lon="7.892619967460632">
        <ele>1847.4000000000001</ele>
        <time>2012-10-02T09:07:18Z</time>
      </trkpt>
      <trkpt lat="45.795370023697615" lon="7.892219983041287">
        <ele>1849.2</ele>
        <time>2012-10-02T09:07:52Z</time>
      </trkpt>
      <trkpt lat="45.795319983735681" lon="7.89211998693645">
        <ele>1848.9000000000001</ele>
        <time>2012-10-02T09:08:02Z</time>
      </trkpt>
      <trkpt lat="45.795259969308972" lon="7.892000041902065">
        <ele>1849.2</ele>
        <time>2012-10-02T09:08:11Z</time>
      </trkpt>
      <trkpt lat="45.795249994844198" lon="7.891740035265684">
        <ele>1851.0999999999999</ele>
        <time>2012-10-02T09:11:11Z</time>
      </trkpt>
      <trkpt lat="45.795159973204136" lon="7.891589999198914">
        <ele>1858.4000000000001</ele>
        <time>2012-10-02T09:12:03Z</time>
      </trkpt>
      <trkpt lat="45.79478002153337" lon="7.891199989244342">
        <ele>1869</ele>
        <time>2012-10-02T09:13:27Z</time>
      </trkpt>
      <trkpt lat="45.794829977676272" lon="7.891139974817634">
        <ele>1874.2</ele>
        <time>2012-10-02T09:13:54Z</time>
      </trkpt>
      <trkpt lat="45.794810028746724" lon="7.890999997034669">
        <ele>1879.0999999999999</ele>
        <time>2012-10-02T09:14:25Z</time>
      </trkpt>
      <trkpt lat="45.79475998878479" lon="7.890920033678412">
        <ele>1881.8</ele>
        <time>2012-10-02T09:14:57Z</time>
      </trkpt>
      <trkpt lat="45.794710032641888" lon="7.890839986503124">
        <ele>1884.9000000000001</ele>
        <time>2012-10-02T09:15:23Z</time>
      </trkpt>
      <trkpt lat="45.794590003788471" lon="7.890739990398288">
        <ele>1888.5</ele>
        <time>2012-10-02T09:15:54Z</time>
      </trkpt>
      <trkpt lat="45.794380037114024" lon="7.89070000872016">
        <ele>1895.9000000000001</ele>
        <time>2012-10-02T09:16:39Z</time>
      </trkpt>
      <trkpt lat="45.794199993833899" lon="7.890600012615323">
        <ele>1899.8</ele>
        <time>2012-10-02T09:17:11Z</time>
      </trkpt>
      <trkpt lat="45.794109972193837" lon="7.890460034832358">
        <ele>1901</ele>
        <time>2012-10-02T09:17:31Z</time>
      </trkpt>
      <trkpt lat="45.794020034372807" lon="7.890360038727522">
        <ele>1902.5999999999999</ele>
        <time>2012-10-02T09:17:42Z</time>
      </trkpt>
      <trkpt lat="45.793960019946098" lon="7.890319973230362">
        <ele>1904.4000000000001</ele>
        <time>2012-10-02T09:18:17Z</time>
      </trkpt>
      <trkpt lat="45.79390000551939" lon="7.890289966017008">
        <ele>1905.5999999999999</ele>
        <time>2012-10-02T09:18:52Z</time>
      </trkpt>
      <trkpt lat="45.793809983879328" lon="7.890300024300814">
        <ele>1905.5999999999999</ele>
        <time>2012-10-02T09:19:15Z</time>
      </trkpt>
      <trkpt lat="45.793819958344102" lon="7.89024998433888">
        <ele>1905.5999999999999</ele>
        <time>2012-10-02T09:23:22Z</time>
      </trkpt>
      <trkpt lat="45.793800009414554" lon="7.890179995447397">
        <ele>1905.9000000000001</ele>
        <time>2012-10-02T09:24:28Z</time>
      </trkpt>
      <trkpt lat="45.793760027736425" lon="7.890049992129207">
        <ele>1905</ele>
        <time>2012-10-02T09:24:36Z</time>
      </trkpt>
      <trkpt lat="45.793700013309717" lon="7.88992996327579">
        <ele>1905.5999999999999</ele>
        <time>2012-10-02T09:24:45Z</time>
      </trkpt>
      <trkpt lat="45.793649973347783" lon="7.8897999599576">
        <ele>1904.0999999999999</ele>
        <time>2012-10-02T09:24:53Z</time>
      </trkpt>
      <trkpt lat="45.793600017204881" lon="7.889680014923215">
        <ele>1904.0999999999999</ele>
        <time>2012-10-02T09:25:01Z</time>
      </trkpt>
      <trkpt lat="45.793570009991527" lon="7.88954003714025">
        <ele>1905</ele>
        <time>2012-10-02T09:25:10Z</time>
      </trkpt>
      <trkpt lat="45.793549977242947" lon="7.889399975538254">
        <ele>1904.4000000000001</ele>
        <time>2012-10-02T09:25:18Z</time>
      </trkpt>
      <trkpt lat="45.793540002778172" lon="7.889299979433417">
        <ele>1903.5</ele>
        <time>2012-10-02T09:25:29Z</time>
      </trkpt>
      <trkpt lat="45.793549977242947" lon="7.889229990541935">
        <ele>1903.5</ele>
        <time>2012-10-02T09:25:48Z</time>
      </trkpt>
      <trkpt lat="45.793500021100044" lon="7.889080038294196">
        <ele>1905.5999999999999</ele>
        <time>2012-10-02T09:27:01Z</time>
      </trkpt>
      <trkpt lat="45.793479988351464" lon="7.888930002227426">
        <ele>1905.9000000000001</ele>
        <time>2012-10-02T09:27:10Z</time>
      </trkpt>
      <trkpt lat="45.793460039421916" lon="7.888790024444461">
        <ele>1906.5</ele>
        <time>2012-10-02T09:27:20Z</time>
      </trkpt>
      <trkpt lat="45.793430032208562" lon="7.888649962842464">
        <ele>1906.8</ele>
        <time>2012-10-02T09:27:28Z</time>
      </trkpt>
      <trkpt lat="45.793379992246628" lon="7.888519959524274">
        <ele>1906.8</ele>
        <time>2012-10-02T09:27:37Z</time>
      </trkpt>
      <trkpt lat="45.7933400105685" lon="7.888400014489889">
        <ele>1906.5</ele>
        <time>2012-10-02T09:27:47Z</time>
      </trkpt>
    </trkseg>
  </trk>

</gpx>